createdAt,value
2019-03-17T00:02:07.259Z,11.74
2019-03-17T00:04:55.858Z,11.74
2019-03-17T00:07:45.194Z,11.71
2019-03-17T00:10:34.234Z,11.68
2019-03-17T00:13:24.005Z,11.67
2019-03-17T00:16:12.923Z,11.67
2019-03-17T00:19:01.958Z,11.64
2019-03-17T00:21:51.104Z,11.56
2019-03-17T00:24:39.513Z,11.44
2019-03-17T00:27:28.195Z,11.34
2019-03-17T00:30:16.873Z,11.17
2019-03-17T00:33:05.934Z,11.08
2019-03-17T00:35:54.826Z,10.89
2019-03-17T00:38:43.061Z,10.80
2019-03-17T00:41:31.901Z,10.67
2019-03-17T00:44:20.822Z,10.57
2019-03-17T00:47:10.814Z,10.44
2019-03-17T00:50:00.388Z,10.33
2019-03-17T00:52:49.438Z,10.24
2019-03-17T00:55:38.169Z,10.15
2019-03-17T00:58:26.304Z,10.07
2019-03-17T01:01:14.950Z,9.98
2019-03-17T01:04:03.790Z,9.91
2019-03-17T01:06:52.541Z,9.84
2019-03-17T01:09:41.448Z,9.72
2019-03-17T01:12:30.612Z,9.63
2019-03-17T01:15:19.527Z,9.53
2019-03-17T01:18:08.192Z,9.39
2019-03-17T01:20:57.449Z,9.35
2019-03-17T01:23:45.988Z,9.28
2019-03-17T01:26:34.835Z,9.21
2019-03-17T01:29:23.364Z,9.13
2019-03-17T01:32:11.761Z,9.09
2019-03-17T01:35:08.948Z,9.01
2019-03-17T01:37:51.012Z,8.93
2019-03-17T01:40:40.156Z,8.88
2019-03-17T01:43:28.915Z,8.81
2019-03-17T01:46:17.775Z,8.78
2019-03-17T01:49:06.672Z,8.84
2019-03-17T01:51:56.910Z,8.90
2019-03-17T01:54:45.884Z,8.94
2019-03-17T01:57:34.661Z,8.93
2019-03-17T02:00:23.037Z,8.93
2019-03-17T02:03:11.640Z,8.94
2019-03-17T02:06:00.853Z,8.92
2019-03-17T02:08:49.812Z,8.87
2019-03-17T02:11:38.416Z,8.84
2019-03-17T02:14:27.108Z,8.80
2019-03-17T02:17:16.012Z,8.77
2019-03-17T02:20:04.802Z,8.74
2019-03-17T02:22:54.051Z,8.67
2019-03-17T02:25:42.080Z,8.62
2019-03-17T02:28:30.942Z,8.60
2019-03-17T02:31:19.526Z,8.55
2019-03-17T02:34:11.583Z,8.47
2019-03-17T02:36:58.634Z,8.51
2019-03-17T02:39:47.384Z,8.51
2019-03-17T02:42:35.437Z,8.52
2019-03-17T02:45:24.328Z,8.59
2019-03-17T02:48:12.534Z,8.66
2019-03-17T02:51:01.158Z,8.66
2019-03-17T02:53:49.460Z,8.72
2019-03-17T02:56:38.447Z,8.67
2019-03-17T02:59:26.672Z,8.66
2019-03-17T03:02:15.171Z,8.64
2019-03-17T03:05:04.930Z,8.61
2019-03-17T03:07:53.535Z,8.60
2019-03-17T03:10:42.009Z,8.54
2019-03-17T03:13:30.667Z,8.52
2019-03-17T03:16:18.957Z,8.46
2019-03-17T03:19:08.023Z,8.39
2019-03-17T03:21:56.440Z,8.37
2019-03-17T03:24:44.599Z,8.32
2019-03-17T03:27:33.414Z,8.25
2019-03-17T03:30:22.279Z,8.16
2019-03-17T03:33:10.662Z,8.12
2019-03-17T03:36:10.575Z,8.05
2019-03-17T03:38:49.723Z,8.11
2019-03-17T03:41:38.494Z,8.08
2019-03-17T03:44:27.382Z,8.08
2019-03-17T03:47:16.374Z,8.17
2019-03-17T03:50:06.036Z,8.26
2019-03-17T03:52:54.375Z,8.33
2019-03-17T03:55:43.081Z,8.38
2019-03-17T03:58:31.958Z,8.42
2019-03-17T04:01:20.714Z,8.38
2019-03-17T04:04:09.154Z,8.42
2019-03-17T04:06:58.168Z,8.44
2019-03-17T04:09:46.294Z,8.42
2019-03-17T04:12:35.396Z,8.38
2019-03-17T04:15:24.223Z,8.36
2019-03-17T04:18:12.830Z,8.32
2019-03-17T04:21:01.567Z,8.29
2019-03-17T04:23:50.639Z,8.18
2019-03-17T04:26:38.782Z,8.14
2019-03-17T04:29:27.692Z,8.12
2019-03-17T04:32:16.393Z,8.04
2019-03-17T04:35:05.711Z,7.97
2019-03-17T04:37:54.250Z,7.93
2019-03-17T04:40:42.683Z,7.90
2019-03-17T04:43:31.117Z,7.91
2019-03-17T04:46:19.683Z,7.89
2019-03-17T04:49:08.553Z,7.86
2019-03-17T04:51:57.514Z,7.83
2019-03-17T04:54:46.505Z,7.81
2019-03-17T04:57:35.667Z,7.75
2019-03-17T05:00:24.436Z,7.73
2019-03-17T05:03:13.499Z,7.74
2019-03-17T05:06:02.099Z,7.76
2019-03-17T05:08:50.574Z,7.78
2019-03-17T05:11:39.519Z,7.79
2019-03-17T05:14:28.542Z,7.81
2019-03-17T05:17:16.661Z,7.80
2019-03-17T05:20:05.719Z,7.81
2019-03-17T05:22:54.399Z,7.81
2019-03-17T05:25:42.655Z,7.81
2019-03-17T05:28:31.337Z,7.82
2019-03-17T05:31:20.222Z,7.83
2019-03-17T05:34:09.144Z,7.84
2019-03-17T05:37:06.077Z,7.88
2019-03-17T05:39:47.846Z,7.92
2019-03-17T05:42:36.649Z,7.93
2019-03-17T05:45:25.394Z,7.98
2019-03-17T05:48:14.049Z,8.04
2019-03-17T05:51:02.745Z,8.09
2019-03-17T05:53:51.681Z,8.13
2019-03-17T05:56:40.475Z,8.17
2019-03-17T05:59:29.547Z,8.22
2019-03-17T06:02:19.163Z,8.28
2019-03-17T06:05:08.376Z,8.37
2019-03-17T06:07:57.733Z,8.38
2019-03-17T06:10:46.373Z,8.47
2019-03-17T06:13:34.913Z,8.58
2019-03-17T06:16:23.709Z,8.66
2019-03-17T06:19:12.789Z,8.73
2019-03-17T06:22:01.649Z,8.79
2019-03-17T06:24:50.721Z,8.83
2019-03-17T06:27:38.781Z,8.89
2019-03-17T06:30:27.486Z,8.94
2019-03-17T06:33:16.044Z,9.01
2019-03-17T06:36:04.661Z,9.11
2019-03-17T06:38:53.436Z,9.21
2019-03-17T06:41:42.192Z,9.32
2019-03-17T06:44:31.057Z,9.43
2019-03-17T06:47:19.615Z,9.53
2019-03-17T06:50:10.637Z,9.65
2019-03-17T06:52:59.599Z,9.76
2019-03-17T06:55:49.159Z,9.87
2019-03-17T06:58:37.943Z,10.01
2019-03-17T07:01:26.345Z,10.14
2019-03-17T07:04:14.917Z,10.24
2019-03-17T07:07:03.293Z,10.32
2019-03-17T07:09:52.409Z,10.39
2019-03-17T07:12:41.209Z,10.45
2019-03-17T07:15:29.442Z,10.49
2019-03-17T07:18:18.391Z,10.56
2019-03-17T07:21:07.336Z,10.64
2019-03-17T07:23:56.415Z,10.78
2019-03-17T07:26:44.731Z,10.93
2019-03-17T07:29:33.238Z,11.07
2019-03-17T07:32:21.913Z,11.24
2019-03-17T07:35:10.717Z,11.30
2019-03-17T07:38:00.171Z,11.38
2019-03-17T07:40:48.963Z,11.47
2019-03-17T07:43:37.985Z,11.57
2019-03-17T07:46:26.763Z,11.64
2019-03-17T07:49:15.850Z,11.73
2019-03-17T07:52:04.811Z,11.84
2019-03-17T07:54:54.120Z,11.95
2019-03-17T07:57:42.876Z,12.09
2019-03-17T08:00:32.491Z,12.24
2019-03-17T08:03:24.134Z,12.47
2019-03-17T08:06:12.179Z,12.66
2019-03-17T08:09:01.422Z,12.81
2019-03-17T08:11:50.194Z,12.99
2019-03-17T08:14:40.157Z,13.25
2019-03-17T08:17:29.026Z,13.39
2019-03-17T08:20:17.485Z,13.58
2019-03-17T08:23:06.025Z,13.69
2019-03-17T08:25:54.981Z,13.84
2019-03-17T08:28:43.839Z,13.94
2019-03-17T08:31:32.509Z,14.12
2019-03-17T08:34:20.970Z,14.20
2019-03-17T08:37:10.029Z,14.33
2019-03-17T08:39:58.756Z,14.46
2019-03-17T08:42:47.752Z,14.65
2019-03-17T08:45:36.368Z,14.81
2019-03-17T08:48:24.908Z,14.88
2019-03-17T08:51:13.930Z,15.00
2019-03-17T08:54:02.561Z,15.08
2019-03-17T08:56:51.163Z,15.20
2019-03-17T08:59:39.433Z,15.32
2019-03-17T09:02:28.067Z,15.39
2019-03-17T09:05:16.975Z,15.44
2019-03-17T09:08:05.294Z,15.60
2019-03-17T09:10:54.031Z,15.69
2019-03-17T09:13:49.960Z,15.83
2019-03-17T09:16:42.265Z,15.92
2019-03-17T09:19:31.955Z,15.96
2019-03-17T09:22:21.914Z,16.02
2019-03-17T09:25:10.515Z,16.19
2019-03-17T09:27:59.184Z,16.29
2019-03-17T09:30:51.349Z,16.41
2019-03-17T09:33:39.806Z,16.42
2019-03-17T09:36:29.199Z,16.53
2019-03-17T09:39:17.584Z,16.64
2019-03-17T09:42:06.421Z,16.75
2019-03-17T09:44:55.300Z,16.81
2019-03-17T09:47:44.474Z,16.80
2019-03-17T09:50:33.752Z,16.93
2019-03-17T09:53:22.657Z,16.99
2019-03-17T09:56:11.247Z,17.01
2019-03-17T09:58:59.374Z,17.26
2019-03-17T10:01:48.280Z,17.26
2019-03-17T10:04:37.190Z,17.50
2019-03-17T10:07:25.885Z,17.50
2019-03-17T10:10:14.732Z,17.55
2019-03-17T10:13:03.179Z,17.48
2019-03-17T10:15:52.172Z,17.45
2019-03-17T10:18:40.539Z,17.44
2019-03-17T10:21:29.330Z,17.45
2019-03-17T10:24:20.169Z,17.62
2019-03-17T10:27:08.606Z,17.51
2019-03-17T10:30:03.257Z,17.51
2019-03-17T10:32:59.392Z,17.51
2019-03-17T10:35:51.137Z,17.60
2019-03-17T10:38:39.391Z,17.65
2019-03-17T10:41:28.039Z,17.69
2019-03-17T10:44:17.231Z,17.76
2019-03-17T10:47:10.172Z,17.72
2019-03-17T10:49:59.389Z,17.82
2019-03-17T10:52:48.009Z,17.92
2019-03-17T10:55:38.224Z,17.92
2019-03-17T10:58:27.466Z,18.07
2019-03-17T11:01:16.620Z,18.07
2019-03-17T11:04:05.452Z,17.98
2019-03-17T11:06:54.192Z,17.98
2019-03-17T11:09:54.379Z,18.25
2019-03-17T11:12:43.885Z,18.25
2019-03-17T11:15:32.159Z,18.28
2019-03-17T11:18:21.426Z,18.43
2019-03-17T11:21:10.581Z,18.38
2019-03-17T11:23:58.969Z,18.37
2019-03-17T11:26:48.076Z,18.31
2019-03-17T11:29:36.521Z,18.28
2019-03-17T11:32:25.012Z,18.13
2019-03-17T11:35:14.612Z,18.13
2019-03-17T11:38:03.397Z,18.09
2019-03-17T11:40:52.430Z,18.23
2019-03-17T11:43:41.069Z,18.25
2019-03-17T11:46:30.221Z,18.37
2019-03-17T11:49:18.529Z,18.42
2019-03-17T11:52:09.944Z,18.25
2019-03-17T11:54:58.697Z,18.40
2019-03-17T11:57:48.089Z,18.48
2019-03-17T12:00:36.989Z,18.57
2019-03-17T12:03:25.843Z,18.64
2019-03-17T12:06:14.929Z,18.66
2019-03-17T12:09:05.056Z,18.82
2019-03-17T12:11:53.979Z,18.84
2019-03-17T12:14:46.734Z,19.12
2019-03-17T12:17:35.798Z,19.17
2019-03-17T12:20:24.963Z,19.07
2019-03-17T12:23:13.529Z,19.22
2019-03-17T12:26:02.314Z,19.24
2019-03-17T12:28:51.533Z,19.12
2019-03-17T12:31:40.105Z,19.26
2019-03-17T12:34:28.944Z,19.38
2019-03-17T12:37:18.199Z,19.38
2019-03-17T12:40:07.319Z,19.27
2019-03-17T12:42:56.546Z,19.34
2019-03-17T12:45:45.641Z,19.40
2019-03-17T12:48:34.181Z,19.35
2019-03-17T12:51:22.856Z,19.28
2019-03-17T12:54:11.776Z,19.37
2019-03-17T12:57:00.900Z,19.63
2019-03-17T12:59:50.159Z,19.85
2019-03-17T13:02:39.114Z,19.95
2019-03-17T13:05:27.972Z,20.09
2019-03-17T13:08:16.586Z,20.25
2019-03-17T13:11:05.069Z,20.12
2019-03-17T13:13:54.178Z,20.16
2019-03-17T13:16:43.387Z,20.16
2019-03-17T13:19:32.247Z,19.99
2019-03-17T13:22:20.693Z,20.19
2019-03-17T13:25:11.546Z,20.16
2019-03-17T13:28:00.401Z,20.43
2019-03-17T13:30:49.201Z,20.45
2019-03-17T13:33:38.328Z,20.49
2019-03-17T13:36:26.828Z,20.44
2019-03-17T13:39:15.880Z,20.19
2019-03-17T13:42:04.981Z,20.12
2019-03-17T13:44:54.273Z,20.10
2019-03-17T13:47:43.147Z,20.24
2019-03-17T13:50:32.197Z,20.16
2019-03-17T13:53:24.057Z,20.47
2019-03-17T13:56:12.431Z,20.43
2019-03-17T13:59:01.356Z,20.52
2019-03-17T14:01:50.089Z,20.93
2019-03-17T14:04:39.126Z,21.35
2019-03-17T14:07:28.051Z,21.94
2019-03-17T14:10:16.852Z,22.38
2019-03-17T14:13:05.911Z,22.51
2019-03-17T14:15:55.204Z,22.36
2019-03-17T14:18:43.959Z,22.71
2019-03-17T14:21:32.158Z,22.78
2019-03-17T14:24:21.164Z,22.57
2019-03-17T14:27:09.824Z,21.92
2019-03-17T14:29:59.079Z,21.62
2019-03-17T14:32:47.825Z,21.05
2019-03-17T14:35:36.297Z,21.17
2019-03-17T14:38:25.056Z,21.63
2019-03-17T14:41:13.786Z,21.51
2019-03-17T14:44:03.088Z,21.56
2019-03-17T14:46:51.300Z,20.99
2019-03-17T14:49:39.445Z,20.84
2019-03-17T14:52:28.240Z,20.23
2019-03-17T14:55:17.421Z,20.75
2019-03-17T14:58:06.369Z,20.65
2019-03-17T15:00:55.615Z,20.98
2019-03-17T15:03:44.739Z,20.75
2019-03-17T15:06:33.231Z,20.08
2019-03-17T15:09:21.727Z,20.32
2019-03-17T15:12:10.396Z,20.73
2019-03-17T15:14:58.916Z,20.46
2019-03-17T15:17:47.211Z,21.03
2019-03-17T15:20:35.738Z,20.78
2019-03-17T15:23:24.433Z,20.47
2019-03-17T15:26:13.596Z,20.01
2019-03-17T15:29:02.216Z,19.39
2019-03-17T15:31:53.865Z,19.20
2019-03-17T15:34:42.798Z,19.08
2019-03-17T15:37:32.106Z,18.12
2019-03-17T15:40:20.624Z,17.59
2019-03-17T15:43:09.921Z,17.69
2019-03-17T15:45:58.344Z,17.28
2019-03-17T15:48:47.375Z,17.32
2019-03-17T15:51:36.421Z,17.34
2019-03-17T15:54:25.113Z,17.28
2019-03-17T15:57:13.775Z,16.84
2019-03-17T16:00:02.553Z,16.84
2019-03-17T16:02:51.973Z,16.77
2019-03-17T16:05:40.688Z,16.45
2019-03-17T16:08:29.204Z,16.18
2019-03-17T16:11:30.155Z,16.18
2019-03-17T16:14:07.872Z,15.93
2019-03-17T16:16:56.703Z,16.06
2019-03-17T16:19:45.457Z,16.08
2019-03-17T16:22:34.604Z,15.85
2019-03-17T16:25:22.900Z,15.72
2019-03-17T16:28:11.741Z,15.72
2019-03-17T16:31:00.251Z,15.57
2019-03-17T16:33:49.057Z,15.56
2019-03-17T16:36:38.221Z,15.53
2019-03-17T16:39:27.172Z,15.37
2019-03-17T16:42:15.599Z,15.25
2019-03-17T16:45:04.559Z,14.58
2019-03-17T16:47:53.220Z,14.19
2019-03-17T16:50:42.411Z,13.64
2019-03-17T16:53:31.631Z,13.32
2019-03-17T16:56:20.340Z,12.83
2019-03-17T16:59:09.191Z,12.34
2019-03-17T17:01:57.441Z,12.09
2019-03-17T17:04:46.454Z,11.71
2019-03-17T17:07:35.400Z,11.77
2019-03-17T17:10:24.416Z,11.65
2019-03-17T17:13:13.709Z,11.27
2019-03-17T17:16:02.528Z,10.07
2019-03-17T17:18:50.781Z,9.55
2019-03-17T17:21:39.752Z,9.24
2019-03-17T17:24:30.421Z,9.04
2019-03-17T17:27:20.596Z,9.01
2019-03-17T17:30:11.662Z,8.84
2019-03-17T17:33:00.243Z,8.43
2019-03-17T17:35:48.833Z,8.14
2019-03-17T17:38:38.104Z,8.07
2019-03-17T17:41:27.212Z,7.95
2019-03-17T17:44:16.168Z,7.75
2019-03-17T17:47:05.694Z,7.59
2019-03-17T17:49:54.293Z,7.30
2019-03-17T17:52:42.528Z,7.24
2019-03-17T17:55:31.463Z,7.11
2019-03-17T17:58:20.313Z,6.99
2019-03-17T18:01:10.891Z,6.88
2019-03-17T18:04:00.001Z,6.75
2019-03-17T18:06:49.223Z,6.70
2019-03-17T18:09:38.480Z,6.58
2019-03-17T18:12:30.323Z,6.45
2019-03-17T18:15:20.192Z,6.51
2019-03-17T18:18:08.890Z,6.53
2019-03-17T18:20:58.355Z,6.32
2019-03-17T18:23:47.593Z,6.04
2019-03-17T18:26:36.573Z,6.04
2019-03-17T18:29:25.383Z,5.98
2019-03-17T18:32:14.602Z,5.89
2019-03-17T18:35:03.753Z,5.80
2019-03-17T18:37:52.365Z,5.74
2019-03-17T18:40:42.616Z,5.70
2019-03-17T18:43:30.711Z,5.76
2019-03-17T18:46:19.482Z,5.61
2019-03-17T18:49:08.327Z,5.72
2019-03-17T18:51:56.760Z,5.58
2019-03-17T18:54:44.941Z,5.62
2019-03-17T18:57:33.193Z,5.60
2019-03-17T19:00:22.519Z,5.66
2019-03-17T19:03:16.897Z,5.67
2019-03-17T19:06:05.832Z,5.76
2019-03-17T19:08:55.040Z,5.73
2019-03-17T19:11:44.368Z,5.87
2019-03-17T19:14:33.347Z,6.01
2019-03-17T19:17:22.393Z,6.09
2019-03-17T19:20:12.279Z,6.15
2019-03-17T19:23:00.933Z,6.24
2019-03-17T19:25:51.256Z,6.05
2019-03-17T19:28:40.516Z,6.13
2019-03-17T19:31:29.606Z,6.15
2019-03-17T19:34:18.476Z,6.31
2019-03-17T19:37:06.997Z,6.17
2019-03-17T19:39:55.969Z,6.25
2019-03-17T19:42:57.485Z,6.27
2019-03-17T19:45:35.411Z,6.13
2019-03-17T19:48:23.931Z,6.09
2019-03-17T19:51:12.300Z,6.00
2019-03-17T19:54:01.559Z,5.65
2019-03-17T19:56:50.301Z,5.88
2019-03-17T19:59:39.080Z,5.71
2019-03-17T20:02:28.123Z,5.81
2019-03-17T20:05:17.332Z,5.87
2019-03-17T20:08:06.183Z,5.87
2019-03-17T20:10:55.502Z,5.95
2019-03-17T20:13:44.504Z,6.02
2019-03-17T20:16:33.900Z,5.64
2019-03-17T20:19:22.887Z,5.80
2019-03-17T20:22:11.874Z,5.81
2019-03-17T20:25:00.552Z,5.83
2019-03-17T20:27:50.013Z,5.96
2019-03-17T20:30:39.605Z,5.90
2019-03-17T20:33:28.836Z,5.97
2019-03-17T20:36:17.787Z,5.85
2019-03-17T20:39:07.513Z,5.96
2019-03-17T20:41:55.852Z,5.84
2019-03-17T20:44:45.262Z,5.93
2019-03-17T20:47:34.692Z,5.80
2019-03-17T20:50:23.980Z,5.76
2019-03-17T20:53:12.639Z,5.59
2019-03-17T20:56:02.285Z,5.63
2019-03-17T20:58:50.971Z,5.67
2019-03-17T21:01:39.923Z,5.74
2019-03-17T21:04:29.388Z,5.79
2019-03-17T21:07:18.711Z,5.81
2019-03-17T21:10:09.261Z,5.73
2019-03-17T21:12:58.329Z,5.53
2019-03-17T21:15:46.718Z,5.54
2019-03-17T21:18:35.415Z,5.44
2019-03-17T21:21:23.787Z,5.58
2019-03-17T21:24:12.823Z,5.56
2019-03-17T21:27:01.713Z,5.65
2019-03-17T21:29:50.213Z,5.53
2019-03-17T21:32:39.348Z,5.63
2019-03-17T21:35:27.544Z,5.54
2019-03-17T21:38:16.357Z,5.44
2019-03-17T21:41:07.247Z,5.44
2019-03-17T21:43:59.693Z,5.37
2019-03-17T21:46:46.020Z,5.50
2019-03-17T21:49:34.707Z,5.49
2019-03-17T21:52:23.000Z,5.37
2019-03-17T21:55:11.568Z,5.40
2019-03-17T21:58:07.649Z,5.42
2019-03-17T22:00:50.598Z,5.19
2019-03-17T22:03:39.067Z,5.07
2019-03-17T22:06:27.875Z,5.16
2019-03-17T22:09:17.490Z,4.98
2019-03-17T22:12:06.322Z,5.05
2019-03-17T22:14:55.575Z,5.19
2019-03-17T22:17:45.258Z,5.06
2019-03-17T22:20:34.245Z,5.15
2019-03-17T22:23:23.567Z,5.20
2019-03-17T22:26:12.830Z,5.23
2019-03-17T22:29:01.475Z,5.04
2019-03-17T22:31:50.317Z,5.18
2019-03-17T22:34:39.373Z,5.21
2019-03-17T22:37:28.132Z,4.97
2019-03-17T22:40:17.381Z,5.03
2019-03-17T22:43:06.125Z,5.12
2019-03-17T22:45:55.071Z,5.09
2019-03-17T22:48:43.979Z,5.07
2019-03-17T22:51:33.106Z,5.05
2019-03-17T22:54:22.050Z,5.22
2019-03-17T22:57:10.133Z,5.06
2019-03-17T22:59:58.901Z,5.07
2019-03-17T23:02:47.656Z,5.04
2019-03-17T23:05:36.653Z,4.98
2019-03-17T23:08:25.213Z,4.81
2019-03-17T23:11:14.117Z,4.85
2019-03-17T23:14:02.464Z,4.93
2019-03-17T23:16:51.195Z,4.87
2019-03-17T23:19:39.649Z,4.66
2019-03-17T23:22:28.095Z,4.67
2019-03-17T23:25:16.577Z,4.56
2019-03-17T23:28:05.386Z,4.46
2019-03-17T23:30:54.465Z,4.48
2019-03-17T23:33:43.736Z,4.64
2019-03-17T23:36:33.003Z,4.69
2019-03-17T23:39:21.643Z,4.55
2019-03-17T23:42:10.412Z,4.65
2019-03-17T23:44:59.112Z,4.57
2019-03-17T23:47:48.279Z,4.59
2019-03-17T23:50:37.397Z,4.56
2019-03-17T23:53:25.528Z,4.68
2019-03-17T23:56:13.810Z,4.45
2019-03-17T23:59:02.441Z,4.42
